createdAt,value
2022-11-10T00:09:52.976Z,11.31
2022-11-10T00:24:58.541Z,10.69
2022-11-10T00:40:04.301Z,10.44
2022-11-10T00:55:10.614Z,10.63
2022-11-10T01:10:16.253Z,10.81
2022-11-10T01:25:22.550Z,10.69
2022-11-10T01:40:28.712Z,10.38
2022-11-10T01:55:36.071Z,10.19
2022-11-10T02:10:41.519Z,9.88
2022-11-10T02:25:47.036Z,9.81
2022-11-10T02:40:52.557Z,9.63
2022-11-10T02:55:58.036Z,9.56
2022-11-10T03:11:03.632Z,9.44
2022-11-10T03:26:09.755Z,9.38
2022-11-10T03:41:20.248Z,9.19
2022-11-10T03:56:26.389Z,9.19
2022-11-10T04:11:50.138Z,9.13
2022-11-10T04:26:55.603Z,8.88
2022-11-10T04:42:02.828Z,8.75
2022-11-10T04:57:08.706Z,8.56
2022-11-10T05:12:17.391Z,8.56
2022-11-10T05:27:26.984Z,8.50
2022-11-10T05:42:32.654Z,8.38
2022-11-10T05:57:38.669Z,8.19
2022-11-10T06:12:46.467Z,8.00
2022-11-10T06:27:52.633Z,7.94
2022-11-10T06:42:58.906Z,7.88
2022-11-10T06:58:04.585Z,8.00
2022-11-10T07:13:11.219Z,8.00
2022-11-10T07:28:16.833Z,8.25
2022-11-10T07:43:24.157Z,8.38
2022-11-10T07:58:31.295Z,8.81
2022-11-10T08:13:36.975Z,9.13
2022-11-10T08:28:42.652Z,9.38
2022-11-10T08:43:48.189Z,9.56
2022-11-10T08:58:54.502Z,9.81
2022-11-10T09:14:00.123Z,10.06
2022-11-10T09:29:05.768Z,10.31
2022-11-10T09:44:17.590Z,10.38
2022-11-10T09:59:27.862Z,10.44
2022-11-10T10:14:52.834Z,10.63
2022-11-10T10:29:58.383Z,10.75
2022-11-10T10:45:19.282Z,10.81
2022-11-10T11:00:26.503Z,10.94
2022-11-10T11:15:32.250Z,10.94
2022-11-10T11:30:51.959Z,10.94
2022-11-10T11:46:04.571Z,11.00
2022-11-10T12:01:24.041Z,11.06
2022-11-10T12:16:32.383Z,11.19
2022-11-10T12:31:39.630Z,11.25
2022-11-10T12:46:51.763Z,11.31
2022-11-10T13:02:05.927Z,11.31
2022-11-10T13:17:12.858Z,11.25
2022-11-10T13:32:42.517Z,11.25
2022-11-10T13:47:55.735Z,11.31
2022-11-10T14:03:02.581Z,11.25
2022-11-10T14:18:19.202Z,11.19
2022-11-10T14:33:26.337Z,11.00
2022-11-10T14:48:33.515Z,10.94
2022-11-10T15:03:41.074Z,10.94
2022-11-10T15:18:49.276Z,10.69
2022-11-10T15:33:57.724Z,10.56
2022-11-10T15:49:04.252Z,10.31
2022-11-10T16:04:11.724Z,10.00
2022-11-10T16:19:17.926Z,9.81
2022-11-10T16:34:23.524Z,9.50
2022-11-10T16:49:33.286Z,9.31
2022-11-10T17:04:39.164Z,9.19
2022-11-10T17:19:45.220Z,9.06
2022-11-10T17:34:51.024Z,8.88
2022-11-10T17:49:56.949Z,8.75
2022-11-10T18:05:02.855Z,8.63
2022-11-10T18:20:09.924Z,8.50
2022-11-10T18:35:15.772Z,8.44
2022-11-10T18:50:21.936Z,8.38
2022-11-10T19:05:27.658Z,8.25
2022-11-10T19:20:36.037Z,8.25
2022-11-10T19:35:44.602Z,8.13
2022-11-10T19:50:56.433Z,8.00
2022-11-10T20:06:04.085Z,7.88
2022-11-10T20:21:11.427Z,7.88
2022-11-10T20:36:20.773Z,7.75
2022-11-10T20:51:26.689Z,7.69
2022-11-10T21:06:32.394Z,7.56
2022-11-10T21:21:38.398Z,7.38
2022-11-10T21:36:44.039Z,7.31
2022-11-10T21:51:49.796Z,7.31
2022-11-10T22:07:12.820Z,7.13
2022-11-10T22:22:18.656Z,7.06
2022-11-10T22:37:24.448Z,7.00
2022-11-10T22:52:30.373Z,7.13
2022-11-10T23:07:36.276Z,7.19
2022-11-10T23:22:42.185Z,7.00
2022-11-10T23:37:47.831Z,7.00
2022-11-10T23:52:54.077Z,6.81
